createdAt,value
2022-10-10T06:06:20.199Z,5.97
2022-10-10T06:08:47.746Z,8.00
2022-10-10T06:11:17.161Z,6.33
2022-10-10T06:13:45.212Z,6.17
2022-10-10T06:16:12.999Z,5.90
2022-10-10T06:18:40.605Z,4.57
2022-10-10T06:21:09.030Z,6.47
2022-10-10T06:23:37.921Z,7.27
2022-10-10T06:26:05.512Z,5.93
2022-10-10T06:28:34.494Z,7.23
2022-10-10T06:31:03.536Z,5.60
2022-10-10T06:33:31.262Z,5.07
2022-10-10T06:35:58.835Z,5.97
2022-10-10T06:38:27.514Z,6.23
2022-10-10T06:41:00.389Z,7.13
2022-10-10T06:43:28.226Z,7.03
2022-10-10T06:45:55.751Z,4.70
2022-10-10T06:48:23.351Z,5.47
2022-10-10T06:50:58.517Z,4.77
2022-10-10T06:53:26.965Z,5.53
2022-10-10T06:55:56.610Z,8.63
2022-10-10T06:58:25.485Z,6.00
2022-10-10T07:00:53.807Z,8.23
2022-10-10T07:03:22.244Z,6.83
2022-10-10T07:05:51.538Z,5.40
2022-10-10T07:08:19.481Z,6.90
2022-10-10T07:10:47.200Z,7.27
2022-10-10T07:13:16.488Z,6.53
2022-10-10T07:15:44.222Z,8.03
2022-10-10T07:18:12.219Z,9.03
2022-10-10T07:20:40.736Z,5.63
2022-10-10T07:23:08.393Z,11.07
2022-10-10T07:25:38.829Z,8.87
2022-10-10T07:28:06.712Z,6.53
2022-10-10T07:30:40.686Z,6.30
2022-10-10T07:33:08.338Z,7.37
2022-10-10T07:35:35.951Z,8.87
2022-10-10T07:38:03.952Z,7.20
2022-10-10T07:40:31.568Z,6.57
2022-10-10T07:42:59.607Z,6.50
2022-10-10T07:45:27.294Z,6.00
2022-10-10T07:47:56.216Z,6.87
2022-10-10T07:50:25.971Z,8.17
2022-10-10T07:52:53.607Z,7.83
2022-10-10T07:55:21.195Z,10.83
2022-10-10T07:57:53.136Z,7.30
2022-10-10T08:00:21.191Z,9.30
2022-10-10T08:02:48.994Z,8.80
2022-10-10T08:05:17.998Z,8.03
2022-10-10T08:07:45.764Z,8.10
2022-10-10T08:10:13.374Z,12.50
2022-10-10T08:12:40.936Z,7.97
2022-10-10T08:15:09.521Z,8.83
2022-10-10T08:17:37.109Z,7.13
2022-10-10T08:20:05.087Z,6.70
2022-10-10T08:22:34.032Z,9.07
2022-10-10T08:25:01.577Z,7.57
2022-10-10T08:27:29.220Z,9.30
2022-10-10T08:29:56.771Z,12.63
2022-10-10T08:32:24.334Z,7.40
2022-10-10T08:34:52.035Z,8.23
2022-10-10T08:37:19.582Z,6.60
2022-10-10T08:39:48.493Z,6.90
2022-10-10T08:42:17.954Z,6.83
2022-10-10T08:44:47.855Z,9.37
2022-10-10T08:47:19.031Z,6.30
2022-10-10T08:49:48.931Z,8.63
2022-10-10T08:52:24.270Z,6.93
2022-10-10T08:54:58.281Z,7.60
2022-10-10T08:57:29.657Z,6.57
2022-10-10T09:00:01.085Z,11.30
2022-10-10T09:03:01.171Z,9.50
2022-10-10T09:05:21.759Z,7.57
2022-10-10T09:07:59.181Z,8.00
2022-10-10T09:10:32.534Z,8.17
2022-10-10T09:13:06.161Z,7.43
2022-10-10T09:15:36.752Z,6.40
2022-10-10T09:18:09.654Z,9.57
2022-10-10T09:20:45.021Z,8.87
2022-10-10T09:23:20.347Z,9.13
2022-10-10T09:25:52.422Z,7.53
2022-10-10T09:28:23.372Z,10.33
2022-10-10T09:30:53.780Z,7.93
2022-10-10T09:33:28.054Z,6.30
2022-10-10T09:35:57.839Z,7.60
2022-10-10T09:38:33.075Z,5.73
2022-10-10T09:41:04.097Z,12.27
2022-10-10T09:43:33.150Z,4.93
2022-10-10T09:46:01.134Z,9.43
2022-10-10T09:48:31.995Z,7.67
2022-10-10T09:51:00.415Z,8.70
2022-10-10T09:53:28.278Z,6.80
2022-10-10T09:55:55.948Z,4.40
2022-10-10T09:58:28.993Z,6.10
2022-10-10T10:00:57.048Z,9.87
2022-10-10T10:03:24.964Z,9.93
2022-10-10T10:05:57.834Z,6.27
2022-10-10T10:08:28.102Z,6.90
2022-10-10T10:10:58.690Z,5.30
2022-10-10T10:13:29.986Z,8.80
2022-10-10T10:16:04.390Z,4.97
2022-10-10T10:18:32.763Z,6.97
2022-10-10T10:21:19.340Z,3.97
2022-10-10T10:23:53.186Z,8.70
2022-10-10T10:26:23.709Z,5.37
2022-10-10T10:28:53.758Z,6.20
2022-10-10T10:31:42.650Z,8.53
2022-10-10T10:34:27.398Z,6.43
2022-10-10T10:36:58.682Z,6.30
2022-10-10T10:39:38.464Z,5.87
2022-10-10T10:42:11.854Z,6.70
2022-10-10T10:44:43.545Z,6.20
2022-10-10T10:47:30.249Z,4.93
2022-10-10T10:50:07.109Z,8.17
2022-10-10T10:52:49.865Z,8.33
2022-10-10T10:55:23.610Z,6.23
2022-10-10T10:58:28.359Z,7.33
2022-10-10T11:01:23.827Z,6.77
2022-10-10T11:05:18.611Z,8.43
2022-10-10T11:07:17.940Z,5.10
2022-10-10T11:09:51.479Z,5.60
2022-10-10T11:12:24.875Z,9.33
2022-10-10T11:14:56.614Z,6.97
2022-10-10T11:17:36.227Z,7.07
2022-10-10T11:20:09.606Z,7.27
2022-10-10T11:22:46.381Z,10.83
2022-10-10T11:25:17.750Z,6.60
2022-10-10T11:27:48.033Z,10.00
2022-10-10T11:30:17.256Z,7.40
2022-10-10T11:32:52.976Z,5.27
2022-10-10T11:35:31.952Z,4.63
2022-10-10T11:38:04.222Z,9.57
2022-10-10T11:40:38.107Z,6.83
2022-10-10T11:43:09.087Z,6.43
2022-10-10T11:45:45.293Z,5.50
2022-10-10T11:48:26.935Z,7.40
2022-10-10T11:50:59.215Z,4.80
2022-10-10T11:53:32.509Z,9.43
2022-10-10T11:56:04.589Z,7.60
2022-10-10T11:58:35.932Z,6.80
2022-10-10T12:01:07.895Z,6.97
2022-10-10T12:03:36.939Z,6.73
2022-10-10T12:06:10.030Z,12.27
2022-10-10T12:08:39.937Z,9.33
2022-10-10T12:11:13.651Z,10.60
2022-10-10T12:13:43.258Z,7.20
2022-10-10T12:16:12.738Z,7.63
2022-10-10T12:18:44.710Z,7.83
2022-10-10T12:21:14.337Z,6.13
2022-10-10T12:23:42.919Z,10.60
2022-10-10T12:26:15.591Z,8.10
2022-10-10T12:29:02.362Z,6.60
2022-10-10T12:31:37.220Z,7.03
2022-10-10T12:34:15.643Z,11.57
2022-10-10T12:37:21.640Z,9.20
2022-10-10T12:40:03.231Z,7.77
2022-10-10T12:42:33.513Z,8.57
2022-10-10T12:45:01.459Z,11.27
2022-10-10T12:47:53.016Z,6.37
2022-10-10T12:50:24.743Z,7.10
2022-10-10T12:52:54.492Z,8.70
2022-10-10T12:55:23.892Z,13.03
2022-10-10T12:57:52.976Z,8.80
2022-10-10T13:00:23.229Z,12.77
2022-10-10T13:02:53.025Z,5.60
2022-10-10T13:05:35.050Z,12.03
2022-10-10T13:08:05.493Z,8.87
2022-10-10T13:10:33.973Z,10.63
2022-10-10T13:13:04.101Z,9.47
2022-10-10T13:15:33.946Z,17.20
2022-10-10T13:18:02.180Z,14.17
2022-10-10T13:20:36.945Z,5.40
2022-10-10T13:23:06.484Z,14.30
2022-10-10T13:25:41.146Z,13.73
2022-10-10T13:28:17.708Z,13.73
2022-10-10T13:30:45.999Z,7.43
2022-10-10T13:33:17.506Z,11.90
2022-10-10T13:35:47.272Z,10.17
2022-10-10T13:38:16.553Z,10.00
2022-10-10T13:40:45.037Z,10.43
2022-10-10T13:43:15.075Z,10.77
2022-10-10T13:45:46.686Z,9.77
2022-10-10T13:48:29.183Z,12.33
2022-10-10T13:51:07.767Z,12.13
2022-10-10T13:53:50.544Z,17.47
2022-10-10T13:56:22.744Z,12.70
2022-10-10T13:58:52.618Z,12.40
2022-10-10T14:01:32.336Z,16.87
2022-10-10T14:04:04.856Z,15.47
2022-10-10T14:06:34.929Z,11.10
2022-10-10T14:09:11.043Z,10.87
2022-10-10T14:11:39.546Z,10.17
2022-10-10T14:14:09.720Z,9.53
2022-10-10T14:16:38.027Z,12.40
2022-10-10T14:19:16.458Z,15.87
2022-10-10T14:21:46.961Z,17.87
2022-10-10T14:24:16.236Z,9.60
2022-10-10T14:26:45.825Z,11.67
2022-10-10T14:29:14.838Z,10.93
2022-10-10T14:31:45.307Z,14.53
2022-10-10T14:34:13.979Z,16.10
2022-10-10T14:36:48.238Z,12.60
2022-10-10T14:39:17.021Z,11.90
2022-10-10T14:41:45.242Z,14.20
2022-10-10T14:44:13.546Z,18.83
2022-10-10T14:46:41.696Z,10.37
2022-10-10T14:49:16.406Z,11.90
2022-10-10T14:51:44.094Z,11.97
2022-10-10T14:54:14.343Z,10.80
2022-10-10T14:57:07.169Z,16.17
2022-10-10T14:59:48.509Z,8.43
2022-10-10T15:02:18.442Z,9.33
2022-10-10T15:04:46.018Z,13.50
2022-10-10T15:07:15.249Z,7.70
2022-10-10T15:10:09.740Z,16.27
2022-10-10T15:12:32.401Z,12.67
2022-10-10T15:14:59.925Z,10.97
2022-10-10T15:17:29.584Z,11.50
2022-10-10T15:19:57.170Z,10.37
2022-10-10T15:22:24.775Z,13.10
2022-10-10T15:24:53.679Z,12.80
2022-10-10T15:27:21.486Z,9.80
2022-10-10T15:29:49.093Z,12.57
2022-10-10T15:32:16.628Z,14.30
2022-10-10T15:34:44.162Z,16.53
2022-10-10T15:37:11.749Z,17.73
2022-10-10T15:39:41.068Z,20.40
2022-10-10T15:42:16.100Z,21.40
2022-10-10T15:44:47.175Z,35.53
2022-10-10T15:47:16.199Z,28.17
2022-10-10T15:49:44.246Z,12.73
2022-10-10T15:52:11.978Z,11.67
2022-10-10T15:54:39.714Z,11.67
2022-10-10T15:57:07.745Z,13.20
2022-10-10T15:59:39.196Z,14.13
2022-10-10T16:02:10.819Z,11.20
2022-10-10T16:04:38.570Z,13.47
2022-10-10T16:07:24.542Z,14.43
2022-10-10T16:09:54.506Z,11.20
2022-10-10T16:12:22.135Z,14.43
2022-10-10T16:14:51.094Z,12.13
2022-10-10T16:17:23.183Z,11.40
2022-10-10T16:19:51.474Z,12.40
2022-10-10T16:22:19.055Z,13.37
2022-10-10T16:24:58.325Z,14.20
2022-10-10T16:27:36.559Z,21.43
2022-10-10T16:30:06.797Z,20.30
2022-10-10T16:32:39.310Z,12.30
2022-10-10T16:35:09.738Z,11.40
2022-10-10T16:37:37.339Z,17.67
2022-10-10T16:40:05.675Z,15.63
2022-10-10T16:42:33.305Z,11.77
2022-10-10T16:45:00.804Z,15.03
2022-10-10T16:47:29.736Z,11.37
2022-10-10T16:49:57.285Z,19.20
2022-10-10T16:52:24.828Z,12.17
2022-10-10T16:54:52.620Z,7.93
2022-10-10T16:57:20.254Z,11.33
2022-10-10T16:59:47.922Z,12.77
2022-10-10T17:02:16.296Z,11.87
2022-10-10T17:04:45.217Z,12.90
2022-10-10T17:07:12.790Z,14.00
2022-10-10T17:09:40.350Z,11.03
2022-10-10T17:12:08.050Z,10.97
2022-10-10T17:14:35.654Z,10.03
2022-10-10T17:17:18.532Z,7.93
2022-10-10T17:19:49.134Z,11.30
2022-10-10T17:22:17.344Z,11.80
2022-10-10T17:24:45.168Z,11.10
2022-10-10T17:27:13.150Z,12.90
2022-10-10T17:29:40.708Z,10.97
2022-10-10T17:32:08.287Z,11.97
2022-10-10T17:34:36.127Z,13.70
2022-10-10T17:37:05.441Z,11.33
2022-10-10T17:39:33.095Z,8.53
2022-10-10T17:42:01.040Z,9.07
2022-10-10T17:44:28.765Z,7.27
2022-10-10T17:46:56.506Z,7.00
2022-10-10T17:49:24.573Z,4.53
2022-10-10T17:51:52.334Z,6.83
2022-10-10T17:54:23.185Z,10.93
2022-10-10T17:56:50.773Z,11.07
2022-10-10T17:59:18.397Z,9.67
2022-10-10T18:01:46.404Z,7.73
2022-10-10T18:04:15.481Z,9.33
2022-10-10T18:06:43.209Z,12.07
2022-10-10T18:09:10.867Z,15.50
2022-10-10T18:11:39.833Z,7.43
2022-10-10T18:14:07.877Z,10.97
2022-10-10T18:16:36.029Z,13.00
2022-10-10T18:19:04.637Z,8.60
2022-10-10T18:21:32.363Z,13.33
2022-10-10T18:24:00.619Z,8.80
2022-10-10T18:26:30.079Z,11.73
2022-10-10T18:28:59.372Z,12.47
2022-10-10T18:31:28.343Z,9.17
2022-10-10T18:33:56.464Z,8.27
2022-10-10T18:36:26.190Z,12.77
2022-10-10T18:38:53.741Z,13.53
2022-10-10T18:41:22.355Z,9.40
2022-10-10T18:43:50.672Z,13.63
2022-10-10T18:46:22.163Z,10.13
2022-10-10T18:48:53.868Z,13.63
2022-10-10T18:51:26.047Z,6.57
2022-10-10T18:53:56.232Z,9.90
2022-10-10T18:56:25.158Z,9.60
2022-10-10T18:58:54.609Z,15.90
2022-10-10T19:01:25.509Z,9.27
2022-10-10T19:03:53.922Z,16.63
2022-10-10T19:06:22.691Z,5.40
2022-10-10T19:08:51.991Z,9.40
2022-10-10T19:11:21.902Z,7.00
2022-10-10T19:13:50.210Z,12.67
2022-10-10T19:16:18.374Z,9.77
2022-10-10T19:18:47.476Z,13.50
2022-10-10T19:21:18.834Z,8.37
2022-10-10T19:23:46.801Z,15.00
2022-10-10T19:26:16.049Z,7.63
2022-10-10T19:28:44.291Z,8.73
2022-10-10T19:31:17.628Z,12.40
2022-10-10T19:33:51.620Z,7.97
2022-10-10T19:36:19.991Z,9.27
2022-10-10T19:38:48.340Z,7.70
2022-10-10T19:41:17.094Z,10.03
2022-10-10T19:43:48.668Z,13.43
2022-10-10T19:46:18.955Z,10.77
2022-10-10T19:48:49.113Z,9.20
2022-10-10T19:51:18.810Z,11.63
2022-10-10T19:53:47.672Z,10.73
2022-10-10T19:56:20.593Z,10.37
2022-10-10T19:58:49.084Z,9.00
2022-10-10T20:01:19.097Z,9.93
2022-10-10T20:03:49.349Z,6.77
2022-10-10T20:06:19.875Z,14.77
2022-10-10T20:08:48.787Z,12.33
2022-10-10T20:11:18.724Z,9.07
2022-10-10T20:13:47.271Z,10.33
2022-10-10T20:16:16.670Z,9.47
2022-10-10T20:18:45.224Z,11.30
2022-10-10T20:21:18.054Z,15.80
2022-10-10T20:23:47.031Z,10.93
2022-10-10T20:26:17.183Z,14.37
2022-10-10T20:28:46.261Z,12.27
2022-10-10T20:31:20.254Z,16.93
2022-10-10T20:33:49.174Z,10.33
2022-10-10T20:36:19.738Z,12.13
2022-10-10T20:38:52.872Z,11.07
2022-10-10T20:41:23.719Z,11.07
2022-10-10T20:43:51.803Z,9.77
2022-10-10T20:46:20.293Z,10.33
2022-10-10T20:48:55.120Z,13.73
2022-10-10T20:51:25.086Z,13.43
2022-10-10T20:53:57.192Z,14.00
2022-10-10T20:56:26.370Z,16.40
2022-10-10T20:58:55.188Z,12.50
2022-10-10T21:01:25.285Z,17.23
2022-10-10T21:03:53.001Z,9.80
2022-10-10T21:06:22.898Z,15.30
2022-10-10T21:08:52.630Z,17.43
2022-10-10T21:11:20.756Z,15.73
2022-10-10T21:13:54.062Z,15.10
2022-10-10T21:16:23.588Z,11.00
2022-10-10T21:18:57.686Z,15.57
2022-10-10T21:21:26.895Z,15.13
2022-10-10T21:23:56.707Z,12.13
2022-10-10T21:26:29.577Z,16.00
2022-10-10T21:28:57.985Z,11.33
2022-10-10T21:31:27.623Z,13.47
2022-10-10T21:33:55.361Z,13.57
2022-10-10T21:36:24.094Z,11.40
2022-10-10T21:38:51.692Z,16.10
2022-10-10T21:41:21.893Z,9.67
2022-10-10T21:43:52.159Z,13.40
2022-10-10T21:46:23.397Z,13.20
2022-10-10T21:48:51.355Z,13.20
2022-10-10T21:51:19.192Z,10.27
2022-10-10T21:53:46.933Z,15.57
2022-10-10T21:56:14.883Z,14.50
2022-10-10T21:58:45.161Z,11.77
2022-10-10T22:01:14.965Z,14.27
2022-10-10T22:03:43.264Z,10.87
2022-10-10T22:06:12.758Z,17.10
2022-10-10T22:08:41.915Z,25.67
2022-10-10T22:11:12.100Z,11.03
2022-10-10T22:13:40.050Z,21.27
2022-10-10T22:16:09.571Z,14.33
2022-10-10T22:18:37.787Z,19.93
2022-10-10T22:21:06.639Z,12.37
2022-10-10T22:23:34.551Z,13.97
2022-10-10T22:26:02.677Z,19.07
2022-10-10T22:28:30.497Z,13.67
2022-10-10T22:30:58.354Z,19.73
2022-10-10T22:33:27.284Z,16.47
2022-10-10T22:35:54.858Z,14.20
2022-10-10T22:38:22.508Z,22.90
2022-10-10T22:40:50.221Z,19.87
2022-10-10T22:43:17.775Z,14.67
2022-10-10T22:45:45.694Z,17.17
2022-10-10T22:48:13.400Z,17.40
2022-10-10T22:50:42.427Z,21.30
2022-10-10T22:53:10.027Z,23.00
2022-10-10T22:55:37.611Z,16.23
2022-10-10T22:58:05.226Z,21.23
2022-10-10T23:00:33.092Z,16.30
2022-10-10T23:03:00.669Z,18.37
2022-10-10T23:05:28.271Z,22.00
2022-10-10T23:07:57.224Z,19.60
2022-10-10T23:10:24.899Z,20.13
2022-10-10T23:12:52.602Z,21.43
2022-10-10T23:15:20.235Z,14.17
2022-10-10T23:17:47.849Z,18.87
2022-10-10T23:20:15.471Z,19.47
2022-10-10T23:22:43.031Z,15.33
2022-10-10T23:25:12.113Z,17.43
2022-10-10T23:27:39.856Z,16.70
2022-10-10T23:30:08.376Z,16.07
2022-10-10T23:32:36.077Z,18.00
2022-10-10T23:35:03.652Z,16.63
2022-10-10T23:37:31.444Z,18.80
2022-10-10T23:39:59.068Z,20.27
2022-10-10T23:42:28.053Z,23.77
2022-10-10T23:44:55.684Z,24.67
2022-10-10T23:47:23.297Z,24.10
2022-10-10T23:49:50.847Z,18.93
2022-10-10T23:52:18.503Z,17.60
2022-10-10T23:54:46.132Z,21.50
2022-10-10T23:57:13.798Z,24.40
2022-10-10T23:59:42.774Z,27.73
